Terminal Aerodrome Forecast
Issued by NWS Sioux Falls, SD

Home | Current Version | Previous Version | Graphics & Text | Print | Product List | Glossary On
Versions: 1 2 3 4 5 6 7 8 9 10 11 12 13 14 15 16 17 18
525
FTUS43 KFSD 211136
TAFFSD
TAF
KFSD 211136Z 2112/2212 02012KT P6SM OVC070
     FM220200 05008KT P6SM BKN120
     FM221000 11009KT P6SM OVC080=

USA.gov is the U.S. government's official web portal to all federal, state and local government web resources and services.